createdAt,value
2019-04-30T00:01:36.159Z,11.95
2019-04-30T00:04:06.395Z,12.09
2019-04-30T00:06:39.341Z,12.21
2019-04-30T00:09:09.711Z,12.17
2019-04-30T00:11:37.393Z,12.08
2019-04-30T00:14:06.220Z,12.14
2019-04-30T00:16:36.199Z,12.39
2019-04-30T00:19:06.146Z,12.48
2019-04-30T00:21:36.119Z,12.97
2019-04-30T00:24:10.000Z,13.06
2019-04-30T00:26:35.616Z,12.90
2019-04-30T00:29:05.113Z,12.80
2019-04-30T00:31:35.016Z,12.62
2019-04-30T00:34:05.047Z,12.17
2019-04-30T00:36:37.257Z,11.76
2019-04-30T00:39:07.153Z,11.57
2019-04-30T00:41:39.939Z,11.43
2019-04-30T00:44:06.882Z,11.33
2019-04-30T00:46:36.478Z,11.45
2019-04-30T00:49:09.807Z,11.38
2019-04-30T00:51:35.888Z,11.40
2019-04-30T00:54:05.653Z,11.29
2019-04-30T00:56:35.512Z,11.18
2019-04-30T00:59:07.045Z,11.10
2019-04-30T01:01:43.484Z,11.07
2019-04-30T01:04:28.209Z,11.03
2019-04-30T01:07:00.284Z,11.02
2019-04-30T01:09:29.270Z,11.01
2019-04-30T01:11:57.996Z,10.98
2019-04-30T01:14:28.419Z,10.99
2019-04-30T01:16:59.293Z,11.10
2019-04-30T01:19:32.150Z,11.14
2019-04-30T01:21:59.445Z,11.12
2019-04-30T01:24:31.638Z,11.12
2019-04-30T01:27:06.698Z,11.10
2019-04-30T01:29:40.779Z,11.10
2019-04-30T01:32:03.456Z,11.06
2019-04-30T01:34:32.179Z,11.07
2019-04-30T01:37:00.941Z,11.13
2019-04-30T01:39:31.609Z,11.34
2019-04-30T01:42:02.999Z,11.22
2019-04-30T01:44:31.823Z,11.19
2019-04-30T01:47:00.557Z,11.23
2019-04-30T01:49:41.560Z,11.16
2019-04-30T01:52:00.970Z,11.12
2019-04-30T01:54:29.921Z,11.07
2019-04-30T01:57:19.314Z,11.08
2019-04-30T02:00:09.749Z,10.93
2019-04-30T02:02:39.915Z,10.71
2019-04-30T02:05:09.004Z,10.59
2019-04-30T02:07:40.148Z,10.48
2019-04-30T02:10:09.601Z,10.39
2019-04-30T02:12:39.259Z,10.89
2019-04-30T02:15:09.525Z,10.71
2019-04-30T02:17:38.913Z,10.55
2019-04-30T02:20:08.925Z,10.51
2019-04-30T02:22:38.946Z,10.33
2019-04-30T02:25:09.760Z,10.07
2019-04-30T02:27:39.070Z,10.04
2019-04-30T02:30:11.125Z,10.19
2019-04-30T02:32:40.438Z,10.17
2019-04-30T02:35:13.699Z,10.01
2019-04-30T02:38:01.303Z,10.09
2019-04-30T02:40:32.511Z,10.24
2019-04-30T02:43:02.093Z,10.10
2019-04-30T02:45:32.898Z,10.01
2019-04-30T02:48:03.487Z,9.94
2019-04-30T02:50:34.728Z,10.05
2019-04-30T02:53:05.756Z,9.88
2019-04-30T02:55:44.541Z,9.80
2019-04-30T02:58:13.445Z,9.85
2019-04-30T03:00:42.165Z,9.87
2019-04-30T03:03:10.887Z,9.87
2019-04-30T03:05:39.654Z,10.02
2019-04-30T03:08:09.663Z,9.90
2019-04-30T03:10:40.186Z,9.83
2019-04-30T03:13:09.856Z,9.80
2019-04-30T03:15:39.469Z,9.85
2019-04-30T03:18:13.032Z,9.82
2019-04-30T03:20:49.774Z,9.72
2019-04-30T03:23:19.549Z,9.67
2019-04-30T03:25:50.191Z,9.65
2019-04-30T03:28:20.233Z,9.66
2019-04-30T03:30:52.018Z,9.67
2019-04-30T03:33:22.943Z,9.67
2019-04-30T03:35:53.959Z,9.62
2019-04-30T03:38:21.587Z,9.58
2019-04-30T03:40:50.472Z,9.52
2019-04-30T03:43:20.387Z,9.50
2019-04-30T03:45:49.904Z,9.53
2019-04-30T03:48:20.025Z,9.61
2019-04-30T03:50:55.675Z,9.87
2019-04-30T03:53:20.208Z,9.76
2019-04-30T03:55:50.589Z,9.67
2019-04-30T03:58:21.169Z,9.64
2019-04-30T04:01:03.735Z,9.67
2019-04-30T04:03:34.154Z,9.71
2019-04-30T04:06:21.480Z,9.83
2019-04-30T04:09:01.027Z,10.21
2019-04-30T04:11:31.327Z,10.21
2019-04-30T04:14:00.044Z,10.26
2019-04-30T04:16:31.915Z,10.29
2019-04-30T04:18:59.457Z,10.32
2019-04-30T04:21:30.054Z,10.44
2019-04-30T04:24:00.203Z,10.45
2019-04-30T04:26:29.889Z,10.50
2019-04-30T04:28:59.441Z,10.56
2019-04-30T04:31:29.898Z,10.70
2019-04-30T04:34:00.073Z,10.79
2019-04-30T04:36:30.253Z,10.89
2019-04-30T04:39:00.417Z,11.01
2019-04-30T04:41:29.622Z,11.15
2019-04-30T04:44:00.206Z,11.69
2019-04-30T04:46:30.768Z,12.44
2019-04-30T04:48:59.767Z,13.03
2019-04-30T04:51:38.126Z,13.53
2019-04-30T04:54:00.148Z,13.88
2019-04-30T04:56:30.458Z,14.09
2019-04-30T04:59:00.233Z,14.23
2019-04-30T05:01:30.588Z,14.20
2019-04-30T05:03:59.313Z,14.16
2019-04-30T05:06:29.816Z,14.22
2019-04-30T05:08:59.177Z,14.58
2019-04-30T05:11:31.672Z,14.98
2019-04-30T05:13:59.914Z,15.31
2019-04-30T05:16:28.975Z,15.52
2019-04-30T05:18:58.655Z,15.56
2019-04-30T05:21:39.656Z,15.80
2019-04-30T05:23:59.080Z,15.76
2019-04-30T05:26:28.680Z,15.98
2019-04-30T05:28:59.171Z,16.09
2019-04-30T05:31:28.943Z,16.11
2019-04-30T05:33:58.721Z,16.18
2019-04-30T05:36:29.210Z,16.42
2019-04-30T05:38:58.749Z,16.72
2019-04-30T05:41:28.980Z,16.80
2019-04-30T05:43:59.125Z,16.93
2019-04-30T05:46:29.826Z,16.95
2019-04-30T05:48:59.436Z,16.97
2019-04-30T05:51:28.906Z,17.00
2019-04-30T05:53:59.264Z,16.90
2019-04-30T05:56:30.205Z,16.75
2019-04-30T05:58:59.310Z,16.61
2019-04-30T06:01:29.539Z,16.63
2019-04-30T06:03:59.443Z,16.93
2019-04-30T06:06:29.000Z,16.98
2019-04-30T06:09:14.766Z,16.84
2019-04-30T06:11:52.826Z,16.87
2019-04-30T06:14:47.992Z,17.01
2019-04-30T06:17:09.277Z,17.09
2019-04-30T06:19:39.148Z,17.21
2019-04-30T06:22:10.850Z,17.32
2019-04-30T06:24:39.552Z,17.42
2019-04-30T06:27:10.581Z,17.49
2019-04-30T06:29:39.660Z,17.53
2019-04-30T06:32:08.783Z,17.53
2019-04-30T06:34:41.835Z,17.72
2019-04-30T06:37:10.220Z,18.03
2019-04-30T06:39:38.947Z,18.09
2019-04-30T06:42:12.451Z,17.94
2019-04-30T06:44:41.863Z,17.68
2019-04-30T06:47:09.801Z,18.44
2019-04-30T06:49:39.376Z,19.00
2019-04-30T06:52:18.180Z,19.63
2019-04-30T06:54:39.787Z,20.25
2019-04-30T06:57:09.682Z,20.52
2019-04-30T06:59:39.731Z,21.18
2019-04-30T07:02:09.262Z,21.68
2019-04-30T07:04:40.025Z,21.52
2019-04-30T07:07:09.245Z,20.94
2019-04-30T07:09:55.922Z,21.41
2019-04-30T07:12:27.839Z,21.88
2019-04-30T07:14:54.266Z,22.15
2019-04-30T07:17:22.988Z,22.45
2019-04-30T07:19:56.536Z,22.73
2019-04-30T07:22:36.728Z,22.58
2019-04-30T07:24:52.708Z,21.95
2019-04-30T07:27:24.117Z,22.03
2019-04-30T07:29:52.049Z,22.53
2019-04-30T07:32:20.773Z,22.41
2019-04-30T07:34:49.940Z,22.67
2019-04-30T07:37:24.202Z,23.03
2019-04-30T07:39:49.455Z,23.31
2019-04-30T07:42:19.223Z,23.34
2019-04-30T07:44:50.246Z,23.18
2019-04-30T07:47:19.518Z,23.48
2019-04-30T07:49:52.967Z,23.56
2019-04-30T07:52:21.559Z,23.82
2019-04-30T07:54:51.876Z,23.90
2019-04-30T07:57:20.599Z,23.83
2019-04-30T07:59:49.840Z,23.96
2019-04-30T08:02:20.873Z,24.13
2019-04-30T08:04:51.319Z,24.47
2019-04-30T08:07:20.648Z,24.56
2019-04-30T08:09:49.576Z,24.76
2019-04-30T08:12:26.033Z,24.65
2019-04-30T08:14:50.187Z,24.40
2019-04-30T08:17:19.004Z,24.40
2019-04-30T08:19:48.965Z,24.62
2019-04-30T08:22:19.677Z,24.67
2019-04-30T08:24:49.178Z,24.55
2019-04-30T08:27:19.632Z,25.01
2019-04-30T08:29:49.937Z,25.02
2019-04-30T08:32:19.179Z,25.31
2019-04-30T08:34:50.116Z,25.09
2019-04-30T08:37:20.251Z,25.20
2019-04-30T08:39:49.685Z,25.18
2019-04-30T08:42:28.991Z,25.11
2019-04-30T08:44:49.279Z,24.98
2019-04-30T08:47:18.818Z,24.81
2019-04-30T08:49:50.017Z,25.10
2019-04-30T08:52:19.793Z,24.82
2019-04-30T08:54:49.599Z,25.27
2019-04-30T08:57:19.197Z,25.15
2019-04-30T08:59:49.470Z,25.32
2019-04-30T09:02:19.687Z,25.61
2019-04-30T09:04:50.286Z,25.87
2019-04-30T09:07:19.724Z,26.52
2019-04-30T09:09:48.915Z,26.52
2019-04-30T09:12:19.632Z,26.61
2019-04-30T09:14:49.104Z,26.65
2019-04-30T09:17:19.913Z,27.04
2019-04-30T09:19:49.125Z,26.97
2019-04-30T09:22:19.517Z,26.68
2019-04-30T09:24:49.678Z,26.72
2019-04-30T09:27:19.555Z,26.72
2019-04-30T09:29:49.202Z,26.79
2019-04-30T09:32:19.291Z,26.71
2019-04-30T09:34:48.933Z,26.78
2019-04-30T09:37:18.756Z,26.78
2019-04-30T09:39:49.430Z,26.83
2019-04-30T09:42:19.462Z,27.08
2019-04-30T09:44:49.233Z,27.24
2019-04-30T09:47:20.057Z,27.05
2019-04-30T09:49:49.406Z,26.99
2019-04-30T09:52:19.301Z,26.95
2019-04-30T09:54:50.084Z,27.35
2019-04-30T09:57:19.444Z,27.35
2019-04-30T09:59:48.697Z,27.45
2019-04-30T10:02:19.159Z,27.45
2019-04-30T10:04:49.761Z,27.61
2019-04-30T10:07:19.499Z,27.75
2019-04-30T10:09:50.664Z,27.62
2019-04-30T10:12:19.666Z,27.91
2019-04-30T10:14:49.502Z,27.81
2019-04-30T10:17:22.846Z,28.41
2019-04-30T10:19:51.720Z,28.45
2019-04-30T10:22:20.441Z,28.48
2019-04-30T10:24:49.509Z,28.54
2019-04-30T10:27:19.156Z,28.38
2019-04-30T10:29:49.354Z,28.49
2019-04-30T10:32:18.747Z,28.30
2019-04-30T10:34:47.951Z,28.09
2019-04-30T10:37:18.752Z,28.05
2019-04-30T10:39:48.998Z,27.97
2019-04-30T10:42:17.700Z,28.02
2019-04-30T10:44:46.416Z,27.93
2019-04-30T10:47:15.830Z,28.22
2019-04-30T10:49:44.670Z,28.39
2019-04-30T10:52:13.394Z,28.29
2019-04-30T10:54:42.115Z,28.52
2019-04-30T10:57:10.864Z,28.82
2019-04-30T10:59:39.678Z,28.84
2019-04-30T11:02:09.081Z,29.02
2019-04-30T11:04:39.609Z,28.58
2019-04-30T11:07:08.718Z,28.42
2019-04-30T11:09:39.379Z,28.39
2019-04-30T11:12:09.458Z,28.20
2019-04-30T11:14:38.357Z,28.06
2019-04-30T11:17:09.643Z,27.64
2019-04-30T11:19:39.058Z,27.53
2019-04-30T11:22:08.200Z,28.28
2019-04-30T11:24:53.394Z,28.91
2019-04-30T11:27:10.165Z,29.02
2019-04-30T11:29:39.379Z,29.05
2019-04-30T11:32:12.556Z,29.45
2019-04-30T11:34:41.644Z,29.55
2019-04-30T11:37:10.354Z,29.84
2019-04-30T11:39:39.080Z,29.47
2019-04-30T11:42:07.878Z,29.03
2019-04-30T11:44:38.665Z,29.24
2019-04-30T11:47:09.968Z,29.67
2019-04-30T11:49:39.527Z,29.82
2019-04-30T11:52:08.344Z,29.63
2019-04-30T11:54:48.755Z,29.05
2019-04-30T11:57:08.929Z,29.37
2019-04-30T11:59:39.536Z,29.91
2019-04-30T12:02:10.135Z,30.34
2019-04-30T12:04:39.424Z,30.25
2019-04-30T12:07:18.792Z,30.59
2019-04-30T12:09:53.110Z,30.69
2019-04-30T12:12:21.826Z,30.41
2019-04-30T12:14:50.543Z,30.94
2019-04-30T12:17:19.298Z,30.38
2019-04-30T12:19:48.861Z,29.68
2019-04-30T12:22:20.014Z,29.52
2019-04-30T12:24:48.880Z,29.23
2019-04-30T12:27:18.773Z,29.12
2019-04-30T12:29:49.470Z,29.04
2019-04-30T12:32:19.217Z,28.39
2019-04-30T12:34:48.489Z,27.93
2019-04-30T12:37:18.992Z,27.84
2019-04-30T12:39:49.164Z,27.25
2019-04-30T12:42:18.856Z,26.69
2019-04-30T12:44:49.440Z,26.77
2019-04-30T12:47:21.763Z,26.82
2019-04-30T12:49:53.443Z,26.60
2019-04-30T12:52:29.889Z,25.99
2019-04-30T12:55:15.145Z,25.53
2019-04-30T12:57:41.303Z,25.18
2019-04-30T13:00:11.931Z,26.36
2019-04-30T13:02:40.656Z,27.47
2019-04-30T13:05:10.790Z,28.04
2019-04-30T13:07:40.410Z,28.05
2019-04-30T13:10:09.994Z,27.39
2019-04-30T13:12:39.732Z,27.53
2019-04-30T13:15:10.886Z,27.82
2019-04-30T13:17:39.661Z,27.63
2019-04-30T13:20:18.615Z,27.67
2019-04-30T13:22:39.343Z,27.27
2019-04-30T13:25:09.526Z,26.91
2019-04-30T13:27:39.871Z,26.64
2019-04-30T13:30:11.366Z,26.58
2019-04-30T13:32:41.657Z,26.55
2019-04-30T13:35:11.331Z,26.66
2019-04-30T13:37:41.620Z,26.75
2019-04-30T13:40:12.114Z,26.56
2019-04-30T13:42:42.526Z,26.35
2019-04-30T13:45:11.440Z,26.11
2019-04-30T13:47:40.157Z,26.20
2019-04-30T13:50:10.078Z,26.12
2019-04-30T13:52:39.036Z,26.46
2019-04-30T13:55:10.730Z,26.39
2019-04-30T13:57:39.288Z,26.36
2019-04-30T14:00:12.247Z,26.58
2019-04-30T14:02:44.800Z,26.47
2019-04-30T14:05:14.730Z,26.51
2019-04-30T14:07:57.059Z,26.74
2019-04-30T14:10:25.982Z,26.79
2019-04-30T14:12:56.266Z,27.08
2019-04-30T14:15:25.373Z,27.11
2019-04-30T14:17:54.224Z,27.28
2019-04-30T14:20:23.119Z,27.18
2019-04-30T14:22:51.993Z,27.21
2019-04-30T14:25:20.706Z,27.25
2019-04-30T14:27:54.530Z,26.70
2019-04-30T14:30:20.805Z,26.35
2019-04-30T14:32:50.757Z,26.42
2019-04-30T14:35:19.625Z,26.67
2019-04-30T14:37:54.577Z,26.77
2019-04-30T14:40:24.138Z,26.77
2019-04-30T14:43:02.156Z,26.71
2019-04-30T14:45:42.299Z,26.56
2019-04-30T14:48:23.743Z,26.27
2019-04-30T14:50:52.746Z,25.63
2019-04-30T14:53:30.524Z,25.78
2019-04-30T14:56:08.884Z,25.77
2019-04-30T14:58:50.055Z,25.90
2019-04-30T15:01:20.347Z,26.14
2019-04-30T15:03:49.542Z,26.41
2019-04-30T15:06:19.410Z,25.65
2019-04-30T15:08:49.502Z,24.86
2019-04-30T15:11:19.053Z,24.35
2019-04-30T15:13:49.420Z,23.98
2019-04-30T15:16:18.224Z,23.72
2019-04-30T15:18:46.941Z,23.43
2019-04-30T15:21:15.813Z,23.24
2019-04-30T15:23:58.548Z,22.97
2019-04-30T15:26:25.205Z,22.80
2019-04-30T15:28:54.150Z,22.66
2019-04-30T15:31:22.868Z,22.64
2019-04-30T15:34:02.561Z,22.70
2019-04-30T15:36:26.504Z,22.20
2019-04-30T15:38:56.796Z,22.17
2019-04-30T15:41:25.771Z,21.88
2019-04-30T15:43:54.486Z,21.60
2019-04-30T15:46:23.507Z,21.51
2019-04-30T15:48:52.372Z,21.02
2019-04-30T15:51:31.483Z,21.03
2019-04-30T15:54:01.255Z,20.69
2019-04-30T15:56:37.132Z,20.34
2019-04-30T15:59:18.971Z,20.16
2019-04-30T16:01:55.185Z,20.08
2019-04-30T16:04:38.498Z,19.98
2019-04-30T16:07:08.487Z,19.83
2019-04-30T16:09:38.851Z,19.65
2019-04-30T16:12:20.103Z,19.53
2019-04-30T16:14:48.596Z,19.42
2019-04-30T16:17:20.591Z,19.30
2019-04-30T16:19:49.527Z,19.30
2019-04-30T16:22:19.221Z,19.45
2019-04-30T16:24:49.603Z,19.60
2019-04-30T16:27:19.159Z,19.72
2019-04-30T16:29:49.807Z,19.65
2019-04-30T16:32:19.267Z,19.58
2019-04-30T16:34:49.846Z,19.51
2019-04-30T16:37:20.243Z,19.45
2019-04-30T16:39:49.071Z,19.47
2019-04-30T16:42:19.052Z,19.27
2019-04-30T16:44:48.030Z,19.17
2019-04-30T16:47:17.194Z,18.99
2019-04-30T16:49:46.058Z,18.93
2019-04-30T16:52:14.811Z,18.80
2019-04-30T16:54:43.526Z,18.71
2019-04-30T16:57:12.309Z,18.57
2019-04-30T16:59:42.340Z,18.47
2019-04-30T17:02:11.845Z,18.26
2019-04-30T17:04:57.527Z,18.12
2019-04-30T17:07:30.887Z,18.05
2019-04-30T17:10:10.060Z,18.04
2019-04-30T17:12:43.100Z,18.03
2019-04-30T17:15:25.625Z,18.03
2019-04-30T17:17:54.360Z,17.98
2019-04-30T17:20:23.088Z,17.86
2019-04-30T17:22:52.145Z,17.88
2019-04-30T17:25:20.836Z,17.95
2019-04-30T17:27:49.553Z,18.12
2019-04-30T17:30:19.696Z,18.23
2019-04-30T17:32:49.869Z,18.15
2019-04-30T17:35:19.103Z,18.08
2019-04-30T17:37:48.058Z,18.10
2019-04-30T17:40:19.102Z,18.02
2019-04-30T17:42:47.551Z,17.89
2019-04-30T17:45:19.379Z,17.83
2019-04-30T17:47:47.921Z,17.81
2019-04-30T17:50:18.600Z,17.75
2019-04-30T17:52:47.235Z,17.65
2019-04-30T17:55:15.960Z,17.58
2019-04-30T17:57:44.688Z,17.43
2019-04-30T18:00:19.372Z,17.32
2019-04-30T18:02:45.412Z,17.28
2019-04-30T18:05:14.130Z,17.19
2019-04-30T18:07:42.897Z,17.05
2019-04-30T18:10:13.207Z,17.03
2019-04-30T18:12:41.930Z,17.04
2019-04-30T18:15:15.854Z,16.99
2019-04-30T18:17:46.234Z,16.97
2019-04-30T18:20:32.365Z,16.98
2019-04-30T18:23:18.750Z,16.87
2019-04-30T18:25:52.881Z,16.88
2019-04-30T18:28:21.595Z,16.84
2019-04-30T18:30:50.421Z,16.84
2019-04-30T18:33:20.089Z,16.68
2019-04-30T18:35:48.819Z,16.53
2019-04-30T18:38:17.850Z,16.55
2019-04-30T18:40:49.557Z,16.50
2019-04-30T18:43:20.539Z,16.68
2019-04-30T18:45:49.484Z,16.58
2019-04-30T18:48:19.531Z,16.43
2019-04-30T18:50:48.503Z,16.52
2019-04-30T18:53:18.742Z,16.45
2019-04-30T18:55:50.521Z,16.64
2019-04-30T18:58:19.999Z,16.74
2019-04-30T19:00:49.473Z,16.79
2019-04-30T19:03:21.767Z,16.70
2019-04-30T19:05:51.228Z,16.75
2019-04-30T19:08:21.528Z,16.76
2019-04-30T19:11:08.995Z,16.75
2019-04-30T19:13:56.221Z,16.63
2019-04-30T19:16:29.533Z,16.57
2019-04-30T19:19:00.978Z,16.51
2019-04-30T19:21:29.817Z,16.41
2019-04-30T19:23:59.496Z,16.29
2019-04-30T19:26:29.296Z,16.28
2019-04-30T19:28:58.083Z,16.19
2019-04-30T19:31:29.549Z,16.14
2019-04-30T19:33:58.853Z,16.16
2019-04-30T19:36:35.899Z,16.06
2019-04-30T19:38:59.789Z,16.04
2019-04-30T19:41:28.830Z,15.87
2019-04-30T19:43:57.602Z,15.79
2019-04-30T19:46:26.355Z,15.82
2019-04-30T19:48:55.071Z,15.62
2019-04-30T19:51:23.798Z,15.66
2019-04-30T19:53:52.679Z,15.33
2019-04-30T19:56:21.395Z,15.02
2019-04-30T19:59:01.457Z,15.16
2019-04-30T20:01:20.723Z,15.21
2019-04-30T20:03:49.438Z,15.06
2019-04-30T20:06:19.148Z,14.96
2019-04-30T20:08:48.220Z,14.96
2019-04-30T20:11:16.960Z,14.72
2019-04-30T20:13:45.665Z,14.70
2019-04-30T20:16:14.456Z,14.63
2019-04-30T20:18:43.186Z,14.49
2019-04-30T20:21:25.334Z,14.38
2019-04-30T20:23:46.879Z,14.14
2019-04-30T20:26:15.581Z,13.99
2019-04-30T20:28:44.393Z,13.83
2019-04-30T20:31:13.372Z,13.68
2019-04-30T20:33:42.090Z,13.57
2019-04-30T20:36:10.808Z,13.46
2019-04-30T20:38:41.329Z,13.61
2019-04-30T20:41:10.983Z,13.47
2019-04-30T20:43:39.734Z,13.76
2019-04-30T20:46:08.759Z,13.88
2019-04-30T20:48:39.306Z,13.96
2019-04-30T20:51:09.543Z,14.10
2019-04-30T20:53:39.054Z,14.09
2019-04-30T20:56:09.305Z,13.89
2019-04-30T20:58:39.075Z,13.73
2019-04-30T21:01:09.635Z,13.53
2019-04-30T21:03:39.550Z,13.38
2019-04-30T21:06:08.861Z,13.60
2019-04-30T21:08:37.877Z,13.64
2019-04-30T21:11:06.598Z,13.52
2019-04-30T21:13:35.311Z,13.70
2019-04-30T21:16:04.203Z,13.58
2019-04-30T21:18:32.921Z,13.40
2019-04-30T21:21:01.632Z,13.19
2019-04-30T21:23:30.438Z,13.06
2019-04-30T21:25:59.168Z,12.87
2019-04-30T21:28:29.749Z,12.73
2019-04-30T21:31:00.872Z,12.56
2019-04-30T21:33:49.261Z,12.58
2019-04-30T21:36:19.195Z,12.39
2019-04-30T21:38:49.032Z,12.15
2019-04-30T21:41:19.530Z,12.04
2019-04-30T21:43:48.516Z,11.92
2019-04-30T21:46:19.075Z,11.83
2019-04-30T21:48:48.788Z,11.68
2019-04-30T21:51:19.276Z,11.54
2019-04-30T21:53:50.320Z,11.43
2019-04-30T21:56:18.565Z,11.27
2019-04-30T21:58:48.259Z,11.17
2019-04-30T22:01:18.647Z,11.04
2019-04-30T22:03:47.774Z,10.93
2019-04-30T22:06:16.564Z,10.86
2019-04-30T22:08:45.271Z,10.92
2019-04-30T22:11:19.838Z,10.82
2019-04-30T22:13:54.850Z,10.95
2019-04-30T22:16:26.590Z,11.05
2019-04-30T22:18:55.304Z,11.16
2019-04-30T22:21:24.172Z,11.39
2019-04-30T22:23:52.891Z,11.37
2019-04-30T22:26:21.608Z,11.42
2019-04-30T22:28:50.483Z,11.28
2019-04-30T22:31:19.768Z,11.20
2019-04-30T22:33:49.117Z,11.12
2019-04-30T22:36:25.729Z,11.16
2019-04-30T22:38:56.024Z,11.26
2019-04-30T22:41:29.798Z,11.34
2019-04-30T22:43:58.533Z,11.26
2019-04-30T22:46:29.252Z,11.26
2019-04-30T22:48:57.738Z,11.18
2019-04-30T22:51:26.532Z,11.27
2019-04-30T22:53:55.244Z,11.16
2019-04-30T22:56:24.022Z,11.06
2019-04-30T22:58:52.734Z,10.96
2019-04-30T23:01:25.773Z,11.05
2019-04-30T23:03:59.014Z,11.11
2019-04-30T23:06:27.739Z,10.99
2019-04-30T23:08:56.446Z,10.96
2019-04-30T23:11:26.460Z,10.98
2019-04-30T23:13:55.178Z,10.94
2019-04-30T23:16:23.897Z,10.95
2019-04-30T23:18:53.472Z,10.90
2019-04-30T23:21:22.188Z,10.78
2019-04-30T23:23:50.904Z,10.59
2019-04-30T23:26:19.682Z,10.63
2019-04-30T23:28:48.406Z,10.58
2019-04-30T23:31:17.119Z,10.57
2019-04-30T23:33:45.876Z,10.52
2019-04-30T23:36:14.658Z,10.49
2019-04-30T23:38:43.372Z,10.41
2019-04-30T23:41:12.327Z,10.25
2019-04-30T23:43:41.046Z,10.23
2019-04-30T23:46:09.755Z,10.15
2019-04-30T23:48:38.626Z,10.07
2019-04-30T23:51:07.338Z,9.92
2019-04-30T23:53:36.059Z,9.79
2019-04-30T23:56:05.085Z,9.75
2019-04-30T23:58:33.795Z,9.86
